sensor_id;sensor_type;location;lat;lon;timestamp;P1;durP1;ratioP1;P2;durP2;ratioP2
68744;SDS011;66104;45.456;11.064;2023-05-10T00:02:04;7.50;;;4.90;;
68744;SDS011;66104;45.456;11.064;2023-05-10T00:04:42;8.30;;;5.50;;
68744;SDS011;66104;45.456;11.064;2023-05-10T00:07:20;8.40;;;5.40;;
68744;SDS011;66104;45.456;11.064;2023-05-10T00:09:58;5.60;;;4.60;;
68744;SDS011;66104;45.456;11.064;2023-05-10T00:12:36;7.00;;;4.50;;
68744;SDS011;66104;45.456;11.064;2023-05-10T00:15:13;9.30;;;3.80;;
68744;SDS011;66104;45.456;11.064;2023-05-10T00:17:52;5.10;;;3.60;;
68744;SDS011;66104;45.456;11.064;2023-05-10T00:20:29;6.30;;;3.40;;
68744;SDS011;66104;45.456;11.064;2023-05-10T00:23:07;5.40;;;3.30;;
68744;SDS011;66104;45.456;11.064;2023-05-10T00:25:45;4.00;;;3.00;;
68744;SDS011;66104;45.456;11.064;2023-05-10T00:28:22;4.00;;;2.70;;
68744;SDS011;66104;45.456;11.064;2023-05-10T00:31:01;4.20;;;2.40;;
68744;SDS011;66104;45.456;11.064;2023-05-10T00:33:39;5.80;;;2.80;;
68744;SDS011;66104;45.456;11.064;2023-05-10T00:36:17;4.30;;;2.70;;
68744;SDS011;66104;45.456;11.064;2023-05-10T00:38:54;4.30;;;2.70;;
68744;SDS011;66104;45.456;11.064;2023-05-10T00:41:31;3.60;;;2.20;;
68744;SDS011;66104;45.456;11.064;2023-05-10T00:44:08;5.20;;;2.70;;
68744;SDS011;66104;45.456;11.064;2023-05-10T00:46:46;6.10;;;2.60;;
68744;SDS011;66104;45.456;11.064;2023-05-10T00:49:24;4.60;;;2.50;;
68744;SDS011;66104;45.456;11.064;2023-05-10T00:52:02;5.30;;;2.60;;
68744;SDS011;66104;45.456;11.064;2023-05-10T00:54:40;4.20;;;2.40;;
68744;SDS011;66104;45.456;11.064;2023-05-10T00:57:17;3.20;;;2.30;;
68744;SDS011;66104;45.456;11.064;2023-05-10T00:59:55;6.70;;;2.30;;
68744;SDS011;66104;45.456;11.064;2023-05-10T01:02:36;5.50;;;2.50;;
68744;SDS011;66104;45.456;11.064;2023-05-10T01:05:13;4.60;;;2.60;;
68744;SDS011;66104;45.456;11.064;2023-05-10T01:07:50;4.10;;;2.20;;
68744;SDS011;66104;45.456;11.064;2023-05-10T01:10:28;4.40;;;2.40;;
68744;SDS011;66104;45.456;11.064;2023-05-10T01:13:06;5.20;;;2.30;;
68744;SDS011;66104;45.456;11.064;2023-05-10T01:15:44;4.50;;;2.70;;
68744;SDS011;66104;45.456;11.064;2023-05-10T01:18:23;5.60;;;2.40;;
68744;SDS011;66104;45.456;11.064;2023-05-10T01:21:11;8.70;;;2.30;;
68744;SDS011;66104;45.456;11.064;2023-05-10T01:31:14;3.50;;;2.30;;
68744;SDS011;66104;45.456;11.064;2023-05-10T01:34:02;4.30;;;2.40;;
68744;SDS011;66104;45.456;11.064;2023-05-10T01:36:51;6.80;;;1.90;;
68744;SDS011;66104;45.456;11.064;2023-05-10T01:39:44;5.40;;;2.70;;
68744;SDS011;66104;45.456;11.064;2023-05-10T01:42:28;3.90;;;2.50;;
68744;SDS011;66104;45.456;11.064;2023-05-10T01:45:18;4.40;;;2.60;;
68744;SDS011;66104;45.456;11.064;2023-05-10T01:48:08;4.00;;;2.50;;
68744;SDS011;66104;45.456;11.064;2023-05-10T01:50:47;3.90;;;2.40;;
68744;SDS011;66104;45.456;11.064;2023-05-10T01:53:25;3.50;;;2.40;;
68744;SDS011;66104;45.456;11.064;2023-05-10T01:56:03;4.20;;;2.40;;
68744;SDS011;66104;45.456;11.064;2023-05-10T01:58:45;3.20;;;2.20;;
68744;SDS011;66104;45.456;11.064;2023-05-10T02:01:27;3.60;;;2.40;;
68744;SDS011;66104;45.456;11.064;2023-05-10T02:04:05;3.50;;;2.50;;
68744;SDS011;66104;45.456;11.064;2023-05-10T02:06:44;3.50;;;2.20;;
68744;SDS011;66104;45.456;11.064;2023-05-10T02:09:24;3.80;;;2.50;;
68744;SDS011;66104;45.456;11.064;2023-05-10T02:12:05;2.80;;;1.90;;
68744;SDS011;66104;45.456;11.064;2023-05-10T02:14:44;3.30;;;2.20;;
68744;SDS011;66104;45.456;11.064;2023-05-10T02:17:23;4.80;;;2.30;;
68744;SDS011;66104;45.456;11.064;2023-05-10T02:20:04;5.20;;;2.30;;
68744;SDS011;66104;45.456;11.064;2023-05-10T02:22:45;3.10;;;2.20;;
68744;SDS011;66104;45.456;11.064;2023-05-10T02:25:24;4.40;;;2.90;;
68744;SDS011;66104;45.456;11.064;2023-05-10T02:28:05;4.90;;;2.40;;
68744;SDS011;66104;45.456;11.064;2023-05-10T02:30:45;3.10;;;2.40;;
68744;SDS011;66104;45.456;11.064;2023-05-10T02:33:26;4.00;;;2.30;;
68744;SDS011;66104;45.456;11.064;2023-05-10T02:36:08;3.20;;;2.20;;
68744;SDS011;66104;45.456;11.064;2023-05-10T02:38:49;4.10;;;2.60;;
68744;SDS011;66104;45.456;11.064;2023-05-10T02:41:27;3.80;;;2.40;;
68744;SDS011;66104;45.456;11.064;2023-05-10T02:44:08;4.60;;;2.20;;
68744;SDS011;66104;45.456;11.064;2023-05-10T02:46:47;4.00;;;2.70;;
68744;SDS011;66104;45.456;11.064;2023-05-10T02:49:25;4.00;;;2.40;;
68744;SDS011;66104;45.456;11.064;2023-05-10T02:52:04;4.20;;;2.40;;
68744;SDS011;66104;45.456;11.064;2023-05-10T02:54:43;3.90;;;2.70;;
68744;SDS011;66104;45.456;11.064;2023-05-10T02:57:27;3.90;;;2.50;;
68744;SDS011;66104;45.456;11.064;2023-05-10T03:00:11;3.50;;;2.20;;
68744;SDS011;66104;45.456;11.064;2023-05-10T03:02:50;4.10;;;2.60;;
68744;SDS011;66104;45.456;11.064;2023-05-10T03:05:29;4.30;;;2.40;;
68744;SDS011;66104;45.456;11.064;2023-05-10T03:08:08;3.40;;;2.30;;
68744;SDS011;66104;45.456;11.064;2023-05-10T03:11:05;2.70;;;1.90;;
68744;SDS011;66104;45.456;11.064;2023-05-10T03:14:07;4.30;;;2.30;;
68744;SDS011;66104;45.456;11.064;2023-05-10T03:16:59;5.10;;;2.40;;
68744;SDS011;66104;45.456;11.064;2023-05-10T03:19:46;3.60;;;2.30;;
68744;SDS011;66104;45.456;11.064;2023-05-10T03:22:32;3.90;;;2.20;;
68744;SDS011;66104;45.456;11.064;2023-05-10T03:25:12;4.70;;;2.60;;
68744;SDS011;66104;45.456;11.064;2023-05-10T03:27:52;4.30;;;2.20;;
68744;SDS011;66104;45.456;11.064;2023-05-10T03:30:31;4.20;;;2.50;;
68744;SDS011;66104;45.456;11.064;2023-05-10T03:33:09;4.10;;;2.50;;
68744;SDS011;66104;45.456;11.064;2023-05-10T03:35:49;3.30;;;2.50;;
68744;SDS011;66104;45.456;11.064;2023-05-10T03:38:28;4.20;;;2.50;;
68744;SDS011;66104;45.456;11.064;2023-05-10T03:41:06;4.20;;;2.60;;
68744;SDS011;66104;45.456;11.064;2023-05-10T03:43:45;4.20;;;2.80;;
68744;SDS011;66104;45.456;11.064;2023-05-10T03:46:22;5.30;;;2.80;;
68744;SDS011;66104;45.456;11.064;2023-05-10T03:49:00;4.10;;;2.50;;
68744;SDS011;66104;45.456;11.064;2023-05-10T03:51:40;5.40;;;2.40;;
68744;SDS011;66104;45.456;11.064;2023-05-10T03:54:17;3.50;;;2.50;;
68744;SDS011;66104;45.456;11.064;2023-05-10T03:56:56;4.30;;;2.40;;
68744;SDS011;66104;45.456;11.064;2023-05-10T03:59:35;3.90;;;2.80;;
68744;SDS011;66104;45.456;11.064;2023-05-10T04:02:12;3.00;;;2.10;;
68744;SDS011;66104;45.456;11.064;2023-05-10T04:04:49;4.50;;;2.30;;
68744;SDS011;66104;45.456;11.064;2023-05-10T04:07:26;3.20;;;2.00;;
68744;SDS011;66104;45.456;11.064;2023-05-10T04:10:05;4.80;;;2.40;;
68744;SDS011;66104;45.456;11.064;2023-05-10T04:12:43;5.50;;;2.50;;
68744;SDS011;66104;45.456;11.064;2023-05-10T04:15:21;5.00;;;2.90;;
68744;SDS011;66104;45.456;11.064;2023-05-10T04:18:01;3.50;;;2.30;;
68744;SDS011;66104;45.456;11.064;2023-05-10T04:20:39;3.80;;;2.20;;
68744;SDS011;66104;45.456;11.064;2023-05-10T04:23:17;4.00;;;2.50;;
68744;SDS011;66104;45.456;11.064;2023-05-10T04:26:01;3.30;;;2.30;;
68744;SDS011;66104;45.456;11.064;2023-05-10T04:28:38;3.40;;;2.30;;
68744;SDS011;66104;45.456;11.064;2023-05-10T04:31:16;3.30;;;2.10;;
68744;SDS011;66104;45.456;11.064;2023-05-10T04:33:53;3.60;;;2.60;;
68744;SDS011;66104;45.456;11.064;2023-05-10T04:36:30;4.10;;;2.30;;
68744;SDS011;66104;45.456;11.064;2023-05-10T04:39:08;3.70;;;2.40;;
68744;SDS011;66104;45.456;11.064;2023-05-10T04:41:45;4.30;;;2.40;;
68744;SDS011;66104;45.456;11.064;2023-05-10T04:44:23;4.10;;;2.50;;
68744;SDS011;66104;45.456;11.064;2023-05-10T04:47:00;3.40;;;2.20;;
68744;SDS011;66104;45.456;11.064;2023-05-10T04:49:40;3.30;;;2.30;;
68744;SDS011;66104;45.456;11.064;2023-05-10T04:52:18;4.60;;;2.20;;
68744;SDS011;66104;45.456;11.064;2023-05-10T04:54:56;3.10;;;2.10;;
68744;SDS011;66104;45.456;11.064;2023-05-10T04:57:33;5.40;;;2.40;;
68744;SDS011;66104;45.456;11.064;2023-05-10T05:00:15;3.90;;;2.20;;
68744;SDS011;66104;45.456;11.064;2023-05-10T05:02:54;4.40;;;2.60;;
68744;SDS011;66104;45.456;11.064;2023-05-10T05:05:32;3.20;;;2.30;;
68744;SDS011;66104;45.456;11.064;2023-05-10T05:08:09;4.00;;;2.30;;
68744;SDS011;66104;45.456;11.064;2023-05-10T05:10:47;3.40;;;2.30;;
68744;SDS011;66104;45.456;11.064;2023-05-10T05:13:26;3.10;;;2.30;;
68744;SDS011;66104;45.456;11.064;2023-05-10T05:16:05;3.40;;;2.30;;
68744;SDS011;66104;45.456;11.064;2023-05-10T05:18:43;3.80;;;2.70;;
68744;SDS011;66104;45.456;11.064;2023-05-10T05:21:21;3.90;;;2.50;;
68744;SDS011;66104;45.456;11.064;2023-05-10T05:23:59;4.70;;;2.30;;
68744;SDS011;66104;45.456;11.064;2023-05-10T05:26:37;3.40;;;2.60;;
68744;SDS011;66104;45.456;11.064;2023-05-10T05:29:15;3.40;;;2.30;;
68744;SDS011;66104;45.456;11.064;2023-05-10T05:31:53;3.50;;;2.30;;
68744;SDS011;66104;45.456;11.064;2023-05-10T05:34:30;4.70;;;2.20;;
68744;SDS011;66104;45.456;11.064;2023-05-10T05:37:08;3.80;;;2.40;;
68744;SDS011;66104;45.456;11.064;2023-05-10T05:39:49;4.00;;;2.70;;
68744;SDS011;66104;45.456;11.064;2023-05-10T05:42:26;3.60;;;2.20;;
68744;SDS011;66104;45.456;11.064;2023-05-10T05:45:06;4.20;;;2.50;;
68744;SDS011;66104;45.456;11.064;2023-05-10T05:47:46;3.80;;;2.70;;
68744;SDS011;66104;45.456;11.064;2023-05-10T05:50:24;3.50;;;2.50;;
68744;SDS011;66104;45.456;11.064;2023-05-10T05:53:02;6.40;;;2.60;;
68744;SDS011;66104;45.456;11.064;2023-05-10T05:55:40;5.00;;;2.20;;
68744;SDS011;66104;45.456;11.064;2023-05-10T05:58:28;4.10;;;2.30;;
68744;SDS011;66104;45.456;11.064;2023-05-10T06:01:06;3.20;;;2.00;;
68744;SDS011;66104;45.456;11.064;2023-05-10T06:03:43;4.60;;;2.40;;
68744;SDS011;66104;45.456;11.064;2023-05-10T06:06:24;4.30;;;2.00;;
68744;SDS011;66104;45.456;11.064;2023-05-10T06:09:02;3.00;;;2.30;;
68744;SDS011;66104;45.456;11.064;2023-05-10T06:11:40;4.20;;;2.30;;
68744;SDS011;66104;45.456;11.064;2023-05-10T06:14:18;3.80;;;2.30;;
68744;SDS011;66104;45.456;11.064;2023-05-10T06:16:58;3.70;;;2.40;;
68744;SDS011;66104;45.456;11.064;2023-05-10T06:19:36;3.20;;;2.30;;
68744;SDS011;66104;45.456;11.064;2023-05-10T06:22:14;3.30;;;2.40;;
68744;SDS011;66104;45.456;11.064;2023-05-10T06:24:51;4.80;;;2.20;;
68744;SDS011;66104;45.456;11.064;2023-05-10T06:27:29;4.30;;;2.30;;
68744;SDS011;66104;45.456;11.064;2023-05-10T06:30:10;4.20;;;2.10;;
68744;SDS011;66104;45.456;11.064;2023-05-10T06:32:49;3.90;;;2.20;;
68744;SDS011;66104;45.456;11.064;2023-05-10T06:35:29;4.30;;;2.40;;
68744;SDS011;66104;45.456;11.064;2023-05-10T06:38:07;3.40;;;2.20;;
68744;SDS011;66104;45.456;11.064;2023-05-10T06:40:45;4.50;;;2.50;;
68744;SDS011;66104;45.456;11.064;2023-05-10T06:43:21;5.20;;;2.40;;
68744;SDS011;66104;45.456;11.064;2023-05-10T06:46:00;6.00;;;2.40;;
68744;SDS011;66104;45.456;11.064;2023-05-10T06:48:38;4.00;;;2.60;;
68744;SDS011;66104;45.456;11.064;2023-05-10T06:51:16;4.00;;;2.80;;
68744;SDS011;66104;45.456;11.064;2023-05-10T06:53:54;3.50;;;2.70;;
68744;SDS011;66104;45.456;11.064;2023-05-10T06:56:31;4.70;;;2.80;;
68744;SDS011;66104;45.456;11.064;2023-05-10T06:59:09;3.90;;;2.40;;
68744;SDS011;66104;45.456;11.064;2023-05-10T07:01:48;4.60;;;2.30;;
68744;SDS011;66104;45.456;11.064;2023-05-10T07:04:26;5.20;;;2.40;;
68744;SDS011;66104;45.456;11.064;2023-05-10T07:07:04;5.60;;;4.30;;
68744;SDS011;66104;45.456;11.064;2023-05-10T07:09:42;4.00;;;2.30;;
68744;SDS011;66104;45.456;11.064;2023-05-10T07:12:19;3.00;;;2.30;;
68744;SDS011;66104;45.456;11.064;2023-05-10T07:14:57;3.70;;;2.30;;
68744;SDS011;66104;45.456;11.064;2023-05-10T07:17:34;3.30;;;2.60;;
68744;SDS011;66104;45.456;11.064;2023-05-10T07:20:18;3.70;;;2.80;;
68744;SDS011;66104;45.456;11.064;2023-05-10T07:22:56;5.90;;;2.90;;
68744;SDS011;66104;45.456;11.064;2023-05-10T07:25:34;5.40;;;2.70;;
68744;SDS011;66104;45.456;11.064;2023-05-10T07:28:12;4.50;;;3.10;;
68744;SDS011;66104;45.456;11.064;2023-05-10T07:30:50;4.70;;;3.20;;
68744;SDS011;66104;45.456;11.064;2023-05-10T07:33:28;8.70;;;3.20;;
68744;SDS011;66104;45.456;11.064;2023-05-10T07:36:06;4.50;;;2.90;;
68744;SDS011;66104;45.456;11.064;2023-05-10T07:38:44;4.40;;;3.10;;
68744;SDS011;66104;45.456;11.064;2023-05-10T07:41:20;3.90;;;2.60;;
68744;SDS011;66104;45.456;11.064;2023-05-10T07:43:57;4.50;;;3.10;;
68744;SDS011;66104;45.456;11.064;2023-05-10T07:46:35;4.30;;;3.00;;
68744;SDS011;66104;45.456;11.064;2023-05-10T07:49:12;4.70;;;3.20;;
68744;SDS011;66104;45.456;11.064;2023-05-10T07:51:49;5.50;;;2.80;;
68744;SDS011;66104;45.456;11.064;2023-05-10T07:54:26;4.90;;;3.20;;
68744;SDS011;66104;45.456;11.064;2023-05-10T07:57:04;4.00;;;2.90;;
68744;SDS011;66104;45.456;11.064;2023-05-10T07:59:41;6.90;;;3.10;;
68744;SDS011;66104;45.456;11.064;2023-05-10T08:02:19;3.60;;;2.80;;
68744;SDS011;66104;45.456;11.064;2023-05-10T08:04:56;5.60;;;3.10;;
68744;SDS011;66104;45.456;11.064;2023-05-10T08:07:35;5.10;;;3.20;;
68744;SDS011;66104;45.456;11.064;2023-05-10T08:10:13;5.60;;;3.10;;
68744;SDS011;66104;45.456;11.064;2023-05-10T08:12:51;5.30;;;2.80;;
68744;SDS011;66104;45.456;11.064;2023-05-10T08:15:29;5.10;;;2.80;;
68744;SDS011;66104;45.456;11.064;2023-05-10T08:18:07;5.20;;;2.60;;
68744;SDS011;66104;45.456;11.064;2023-05-10T08:20:44;5.90;;;3.20;;
68744;SDS011;66104;45.456;11.064;2023-05-10T08:23:22;4.80;;;3.00;;
68744;SDS011;66104;45.456;11.064;2023-05-10T08:26:00;5.00;;;3.00;;
68744;SDS011;66104;45.456;11.064;2023-05-10T08:28:56;4.90;;;3.10;;
68744;SDS011;66104;45.456;11.064;2023-05-10T08:31:34;4.30;;;2.50;;
68744;SDS011;66104;45.456;11.064;2023-05-10T08:34:11;5.30;;;2.70;;
68744;SDS011;66104;45.456;11.064;2023-05-10T08:36:48;5.00;;;3.20;;
68744;SDS011;66104;45.456;11.064;2023-05-10T08:39:25;4.10;;;3.00;;
68744;SDS011;66104;45.456;11.064;2023-05-10T08:42:04;6.70;;;3.20;;
68744;SDS011;66104;45.456;11.064;2023-05-10T08:44:43;3.40;;;2.50;;
68744;SDS011;66104;45.456;11.064;2023-05-10T08:47:23;6.00;;;2.90;;
68744;SDS011;66104;45.456;11.064;2023-05-10T08:50:01;4.20;;;2.80;;
68744;SDS011;66104;45.456;11.064;2023-05-10T08:52:43;4.20;;;2.70;;
68744;SDS011;66104;45.456;11.064;2023-05-10T08:55:22;4.20;;;2.80;;
68744;SDS011;66104;45.456;11.064;2023-05-10T08:58:17;3.80;;;2.70;;
68744;SDS011;66104;45.456;11.064;2023-05-10T09:00:54;4.30;;;2.50;;
68744;SDS011;66104;45.456;11.064;2023-05-10T09:03:32;3.80;;;2.40;;
68744;SDS011;66104;45.456;11.064;2023-05-10T09:06:09;4.50;;;2.30;;
68744;SDS011;66104;45.456;11.064;2023-05-10T09:08:48;3.70;;;2.40;;
68744;SDS011;66104;45.456;11.064;2023-05-10T09:11:26;3.90;;;2.10;;
68744;SDS011;66104;45.456;11.064;2023-05-10T09:14:03;3.70;;;2.30;;
68744;SDS011;66104;45.456;11.064;2023-05-10T09:16:40;3.50;;;2.20;;
68744;SDS011;66104;45.456;11.064;2023-05-10T09:19:17;4.10;;;2.10;;
68744;SDS011;66104;45.456;11.064;2023-05-10T09:21:55;3.50;;;2.20;;
68744;SDS011;66104;45.456;11.064;2023-05-10T09:24:33;3.20;;;2.20;;
68744;SDS011;66104;45.456;11.064;2023-05-10T09:27:13;3.30;;;2.20;;
68744;SDS011;66104;45.456;11.064;2023-05-10T09:29:51;2.90;;;2.10;;
68744;SDS011;66104;45.456;11.064;2023-05-10T09:32:38;3.90;;;2.50;;
68744;SDS011;66104;45.456;11.064;2023-05-10T09:35:19;3.50;;;2.40;;
68744;SDS011;66104;45.456;11.064;2023-05-10T09:38:02;4.90;;;2.10;;
68744;SDS011;66104;45.456;11.064;2023-05-10T09:40:39;3.20;;;2.00;;
68744;SDS011;66104;45.456;11.064;2023-05-10T09:43:25;3.10;;;2.00;;
68744;SDS011;66104;45.456;11.064;2023-05-10T09:46:10;3.10;;;2.10;;
68744;SDS011;66104;45.456;11.064;2023-05-10T09:48:48;3.10;;;2.10;;
68744;SDS011;66104;45.456;11.064;2023-05-10T09:51:25;3.00;;;2.10;;
68744;SDS011;66104;45.456;11.064;2023-05-10T09:54:13;4.20;;;2.10;;
68744;SDS011;66104;45.456;11.064;2023-05-10T09:56:50;3.20;;;2.30;;
68744;SDS011;66104;45.456;11.064;2023-05-10T09:59:28;3.30;;;2.40;;
68744;SDS011;66104;45.456;11.064;2023-05-10T10:02:07;4.20;;;2.20;;
68744;SDS011;66104;45.456;11.064;2023-05-10T10:04:44;3.20;;;1.90;;
68744;SDS011;66104;45.456;11.064;2023-05-10T10:07:26;3.00;;;2.20;;
68744;SDS011;66104;45.456;11.064;2023-05-10T10:10:05;4.20;;;2.30;;
68744;SDS011;66104;45.456;11.064;2023-05-10T10:12:45;3.20;;;2.30;;
68744;SDS011;66104;45.456;11.064;2023-05-10T10:15:23;3.90;;;2.30;;
68744;SDS011;66104;45.456;11.064;2023-05-10T10:18:01;3.70;;;2.40;;
68744;SDS011;66104;45.456;11.064;2023-05-10T10:20:39;5.50;;;2.50;;
68744;SDS011;66104;45.456;11.064;2023-05-10T10:23:16;6.50;;;2.30;;
68744;SDS011;66104;45.456;11.064;2023-05-10T10:25:55;3.30;;;2.40;;
68744;SDS011;66104;45.456;11.064;2023-05-10T10:28:41;2.90;;;2.10;;
68744;SDS011;66104;45.456;11.064;2023-05-10T10:31:31;2.80;;;1.90;;
68744;SDS011;66104;45.456;11.064;2023-05-10T10:34:25;4.30;;;2.20;;
68744;SDS011;66104;45.456;11.064;2023-05-10T10:37:06;3.60;;;2.30;;
68744;SDS011;66104;45.456;11.064;2023-05-10T10:39:43;3.80;;;2.50;;
68744;SDS011;66104;45.456;11.064;2023-05-10T10:42:46;5.60;;;2.50;;
68744;SDS011;66104;45.456;11.064;2023-05-10T10:45:24;3.00;;;2.00;;
68744;SDS011;66104;45.456;11.064;2023-05-10T10:48:23;3.50;;;2.10;;
68744;SDS011;66104;45.456;11.064;2023-05-10T10:51:00;3.20;;;2.00;;
68744;SDS011;66104;45.456;11.064;2023-05-10T10:53:40;3.80;;;2.40;;
68744;SDS011;66104;45.456;11.064;2023-05-10T10:56:23;3.50;;;2.20;;
68744;SDS011;66104;45.456;11.064;2023-05-10T10:59:01;3.30;;;2.30;;
68744;SDS011;66104;45.456;11.064;2023-05-10T11:01:43;4.50;;;2.40;;
68744;SDS011;66104;45.456;11.064;2023-05-10T11:04:26;4.10;;;2.30;;
68744;SDS011;66104;45.456;11.064;2023-05-10T11:07:20;5.40;;;2.60;;
68744;SDS011;66104;45.456;11.064;2023-05-10T11:09:57;3.70;;;2.10;;
68744;SDS011;66104;45.456;11.064;2023-05-10T11:12:54;4.10;;;2.30;;
68744;SDS011;66104;45.456;11.064;2023-05-10T11:15:36;3.30;;;2.10;;
68744;SDS011;66104;45.456;11.064;2023-05-10T11:18:26;3.40;;;2.00;;
68744;SDS011;66104;45.456;11.064;2023-05-10T11:21:04;3.70;;;2.30;;
68744;SDS011;66104;45.456;11.064;2023-05-10T11:23:55;3.40;;;2.10;;
68744;SDS011;66104;45.456;11.064;2023-05-10T11:26:34;3.40;;;2.40;;
68744;SDS011;66104;45.456;11.064;2023-05-10T11:29:12;4.20;;;2.60;;
68744;SDS011;66104;45.456;11.064;2023-05-10T11:31:50;4.10;;;2.30;;
68744;SDS011;66104;45.456;11.064;2023-05-10T11:34:28;3.70;;;2.60;;
68744;SDS011;66104;45.456;11.064;2023-05-10T11:37:06;2.90;;;1.80;;
68744;SDS011;66104;45.456;11.064;2023-05-10T11:39:48;3.00;;;2.20;;
68744;SDS011;66104;45.456;11.064;2023-05-10T11:42:24;3.60;;;2.60;;
68744;SDS011;66104;45.456;11.064;2023-05-10T11:45:02;4.30;;;2.40;;
68744;SDS011;66104;45.456;11.064;2023-05-10T11:47:42;4.20;;;2.50;;
68744;SDS011;66104;45.456;11.064;2023-05-10T11:50:22;3.30;;;2.60;;
68744;SDS011;66104;45.456;11.064;2023-05-10T11:53:00;4.80;;;2.30;;
68744;SDS011;66104;45.456;11.064;2023-05-10T11:55:38;3.20;;;2.30;;
68744;SDS011;66104;45.456;11.064;2023-05-10T11:58:20;4.10;;;2.40;;
68744;SDS011;66104;45.456;11.064;2023-05-10T12:01:02;3.80;;;2.60;;
68744;SDS011;66104;45.456;11.064;2023-05-10T12:03:42;3.70;;;2.30;;
68744;SDS011;66104;45.456;11.064;2023-05-10T12:06:19;4.30;;;2.70;;
68744;SDS011;66104;45.456;11.064;2023-05-10T12:08:57;3.90;;;2.60;;
68744;SDS011;66104;45.456;11.064;2023-05-10T12:11:41;4.20;;;2.50;;
68744;SDS011;66104;45.456;11.064;2023-05-10T12:14:19;3.00;;;2.20;;
68744;SDS011;66104;45.456;11.064;2023-05-10T12:16:59;4.90;;;2.20;;
68744;SDS011;66104;45.456;11.064;2023-05-10T12:22:17;2.70;;;1.80;;
68744;SDS011;66104;45.456;11.064;2023-05-10T12:24:56;4.40;;;2.30;;
68744;SDS011;66104;45.456;11.064;2023-05-10T12:27:35;3.10;;;2.00;;
68744;SDS011;66104;45.456;11.064;2023-05-10T12:30:20;4.10;;;2.40;;
68744;SDS011;66104;45.456;11.064;2023-05-10T12:33:02;3.80;;;2.40;;
68744;SDS011;66104;45.456;11.064;2023-05-10T12:35:49;3.00;;;2.20;;
68744;SDS011;66104;45.456;11.064;2023-05-10T12:38:33;3.60;;;2.50;;
68744;SDS011;66104;45.456;11.064;2023-05-10T12:41:14;4.00;;;2.40;;
68744;SDS011;66104;45.456;11.064;2023-05-10T12:43:51;4.20;;;2.70;;
68744;SDS011;66104;45.456;11.064;2023-05-10T12:46:28;5.00;;;2.50;;
68744;SDS011;66104;45.456;11.064;2023-05-10T12:49:05;3.70;;;2.50;;
68744;SDS011;66104;45.456;11.064;2023-05-10T12:51:41;4.90;;;2.50;;
68744;SDS011;66104;45.456;11.064;2023-05-10T12:54:19;4.70;;;2.70;;
68744;SDS011;66104;45.456;11.064;2023-05-10T12:56:57;5.40;;;2.30;;
68744;SDS011;66104;45.456;11.064;2023-05-10T12:59:34;5.70;;;2.60;;
68744;SDS011;66104;45.456;11.064;2023-05-10T13:02:11;3.80;;;2.50;;
68744;SDS011;66104;45.456;11.064;2023-05-10T13:04:49;4.50;;;2.60;;
68744;SDS011;66104;45.456;11.064;2023-05-10T13:07:26;3.50;;;2.40;;
68744;SDS011;66104;45.456;11.064;2023-05-10T13:10:05;3.40;;;2.60;;
68744;SDS011;66104;45.456;11.064;2023-05-10T13:12:43;5.70;;;2.90;;
68744;SDS011;66104;45.456;11.064;2023-05-10T13:15:19;4.40;;;2.70;;
68744;SDS011;66104;45.456;11.064;2023-05-10T13:17:55;5.30;;;2.80;;
68744;SDS011;66104;45.456;11.064;2023-05-10T13:20:32;4.40;;;2.50;;
68744;SDS011;66104;45.456;11.064;2023-05-10T13:23:09;4.10;;;2.50;;
68744;SDS011;66104;45.456;11.064;2023-05-10T13:25:46;3.40;;;2.50;;
68744;SDS011;66104;45.456;11.064;2023-05-10T13:28:23;4.50;;;2.50;;
68744;SDS011;66104;45.456;11.064;2023-05-10T13:31:01;3.80;;;2.60;;
68744;SDS011;66104;45.456;11.064;2023-05-10T13:33:38;3.20;;;2.40;;
68744;SDS011;66104;45.456;11.064;2023-05-10T13:36:15;4.80;;;2.50;;
68744;SDS011;66104;45.456;11.064;2023-05-10T13:38:53;4.00;;;2.70;;
68744;SDS011;66104;45.456;11.064;2023-05-10T13:41:31;4.00;;;2.50;;
68744;SDS011;66104;45.456;11.064;2023-05-10T13:44:11;3.70;;;2.70;;
68744;SDS011;66104;45.456;11.064;2023-05-10T13:46:52;3.90;;;2.80;;
68744;SDS011;66104;45.456;11.064;2023-05-10T13:49:29;6.20;;;2.80;;
68744;SDS011;66104;45.456;11.064;2023-05-10T13:52:07;4.80;;;2.70;;
68744;SDS011;66104;45.456;11.064;2023-05-10T13:54:44;4.70;;;2.70;;
68744;SDS011;66104;45.456;11.064;2023-05-10T13:57:21;4.60;;;2.70;;
68744;SDS011;66104;45.456;11.064;2023-05-10T13:59:58;4.50;;;3.20;;
68744;SDS011;66104;45.456;11.064;2023-05-10T14:02:38;4.70;;;3.10;;
68744;SDS011;66104;45.456;11.064;2023-05-10T14:05:15;4.70;;;2.90;;
68744;SDS011;66104;45.456;11.064;2023-05-10T14:07:56;4.00;;;2.90;;
68744;SDS011;66104;45.456;11.064;2023-05-10T14:10:35;3.80;;;3.10;;
68744;SDS011;66104;45.456;11.064;2023-05-10T14:13:13;4.30;;;2.50;;
68744;SDS011;66104;45.456;11.064;2023-05-10T14:15:50;4.30;;;2.30;;
68744;SDS011;66104;45.456;11.064;2023-05-10T14:18:26;4.10;;;2.30;;
68744;SDS011;66104;45.456;11.064;2023-05-10T14:21:04;4.40;;;2.30;;
68744;SDS011;66104;45.456;11.064;2023-05-10T14:23:42;4.40;;;2.40;;
68744;SDS011;66104;45.456;11.064;2023-05-10T14:26:19;3.30;;;2.50;;
68744;SDS011;66104;45.456;11.064;2023-05-10T14:28:57;6.70;;;2.30;;
68744;SDS011;66104;45.456;11.064;2023-05-10T14:34:39;4.60;;;2.10;;
68744;SDS011;66104;45.456;11.064;2023-05-10T14:37:17;3.50;;;2.30;;
68744;SDS011;66104;45.456;11.064;2023-05-10T14:39:57;3.90;;;2.40;;
68744;SDS011;66104;45.456;11.064;2023-05-10T14:42:36;3.80;;;2.30;;
68744;SDS011;66104;45.456;11.064;2023-05-10T14:45:15;4.00;;;2.50;;
68744;SDS011;66104;45.456;11.064;2023-05-10T14:47:51;3.40;;;2.40;;
68744;SDS011;66104;45.456;11.064;2023-05-10T14:50:28;3.70;;;2.70;;
68744;SDS011;66104;45.456;11.064;2023-05-10T14:53:07;4.80;;;3.00;;
68744;SDS011;66104;45.456;11.064;2023-05-10T14:55:45;5.30;;;3.00;;
68744;SDS011;66104;45.456;11.064;2023-05-10T14:58:22;5.10;;;3.40;;
68744;SDS011;66104;45.456;11.064;2023-05-10T15:00:59;4.00;;;3.10;;
68744;SDS011;66104;45.456;11.064;2023-05-10T15:03:36;4.10;;;3.10;;
68744;SDS011;66104;45.456;11.064;2023-05-10T15:06:13;4.70;;;3.40;;
68744;SDS011;66104;45.456;11.064;2023-05-10T15:08:50;5.00;;;3.70;;
68744;SDS011;66104;45.456;11.064;2023-05-10T15:11:27;4.70;;;3.40;;
68744;SDS011;66104;45.456;11.064;2023-05-10T15:14:03;5.20;;;3.50;;
68744;SDS011;66104;45.456;11.064;2023-05-10T15:16:39;4.90;;;3.50;;
68744;SDS011;66104;45.456;11.064;2023-05-10T15:19:17;5.00;;;3.80;;
68744;SDS011;66104;45.456;11.064;2023-05-10T15:21:54;4.60;;;3.50;;
68744;SDS011;66104;45.456;11.064;2023-05-10T15:24:32;7.10;;;3.30;;
68744;SDS011;66104;45.456;11.064;2023-05-10T15:27:10;5.40;;;3.30;;
68744;SDS011;66104;45.456;11.064;2023-05-10T15:29:48;4.50;;;2.90;;
68744;SDS011;66104;45.456;11.064;2023-05-10T15:32:26;5.00;;;3.20;;
68744;SDS011;66104;45.456;11.064;2023-05-10T15:35:06;4.90;;;3.50;;
68744;SDS011;66104;45.456;11.064;2023-05-10T15:37:44;4.90;;;3.50;;
68744;SDS011;66104;45.456;11.064;2023-05-10T15:40:21;5.90;;;3.20;;
68744;SDS011;66104;45.456;11.064;2023-05-10T15:42:58;4.10;;;3.40;;
68744;SDS011;66104;45.456;11.064;2023-05-10T15:45:35;4.00;;;3.10;;
68744;SDS011;66104;45.456;11.064;2023-05-10T15:48:13;3.80;;;2.60;;
68744;SDS011;66104;45.456;11.064;2023-05-10T15:50:51;4.10;;;2.80;;
68744;SDS011;66104;45.456;11.064;2023-05-10T15:53:31;5.80;;;2.60;;
68744;SDS011;66104;45.456;11.064;2023-05-10T15:56:12;4.70;;;3.20;;
68744;SDS011;66104;45.456;11.064;2023-05-10T15:58:48;5.60;;;3.10;;